Time;durP1;ratioP1;P1;durP2;ratioP2;P2;SDS_P1;SDS_P2;PMS_P1;PMS_P2;Temp;Humidity;BMP_temperature;BMP_pressure;BME280_temperature;BME280_humidity;BME280_pressure;Samples;Min_cycle;Max_cycle;Signal;HPM_P1;HPM_P2
2022/09/23 00:00:09;;;;;;;14.90;5.70;;;;;;;10.06;100.00;100289.81;5015679;28;20437;-69
2022/09/23 00:02:35;;;;;;;11.50;4.47;;;;;;;10.02;100.00;100285.47;5017135;28;20473;-70
2022/09/23 00:05:00;;;;;;;8.35;4.03;;;;;;;10.01;100.00;100286.41;5035395;28;20095;-70
2022/09/23 00:07:26;;;;;;;9.77;4.18;;;;;;;9.95;100.00;100288.34;5029807;28;20025;-69
2022/09/23 00:09:51;;;;;;;11.05;3.97;;;;;;;9.92;100.00;100286.63;5015688;28;20032;-68
2022/09/23 00:12:17;;;;;;;8.10;4.57;;;;;;;9.89;100.00;100286.72;4997987;28;20437;-69
2022/09/23 00:14:42;;;;;;;9.20;4.45;;;;;;;9.78;100.00;100274.63;5015667;28;20022;-69
2022/09/23 00:17:07;;;;;;;6.72;4.07;;;;;;;9.80;100.00;100278.97;5015228;28;20046;-68
2022/09/23 00:19:33;;;;;;;6.88;3.97;;;;;;;9.77;100.00;100286.16;5012927;28;20018;-68
2022/09/23 00:21:58;;;;;;;6.97;3.90;;;;;;;9.75;100.00;100288.81;5033660;28;20029;-68
2022/09/23 00:24:24;;;;;;;8.40;4.20;;;;;;;9.74;100.00;100289.75;5031799;28;20565;-68
2022/09/23 00:26:49;;;;;;;6.80;4.25;;;;;;;9.72;100.00;100288.06;5031629;28;20044;-68
2022/09/23 00:29:15;;;;;;;5.82;4.63;;;;;;;9.67;100.00;100287.31;5031659;28;20031;-68
2022/09/23 00:31:41;;;;;;;7.43;3.63;;;;;;;9.67;100.00;100288.16;5021296;28;20026;-69
2022/09/23 00:34:09;;;;;;;6.22;3.88;;;;;;;9.62;100.00;100287.38;5011474;28;20021;-68
2022/09/23 00:36:35;;;;;;;7.95;4.00;;;;;;;9.57;100.00;100281.31;5022536;28;20057;-68
2022/09/23 00:39:02;;;;;;;5.72;3.33;;;;;;;9.55;100.00;100288.47;5012783;28;20032;-68
2022/09/23 00:41:28;;;;;;;6.30;3.70;;;;;;;9.45;100.00;100271.00;5011231;28;20030;-68
2022/09/23 00:43:59;;;;;;;6.93;3.63;;;;;;;9.55;100.00;100291.13;5013923;28;20022;-68
2022/09/23 00:46:27;;;;;;;7.10;3.22;;;;;;;9.56;100.00;100291.97;5011875;28;20457;-68
2022/09/23 00:49:11;;;;;;;6.80;3.80;;;;;;;9.52;100.00;100288.56;5011910;28;20867;-69
2022/09/23 00:51:43;;;;;;;5.53;3.28;;;;;;;9.51;100.00;100292.09;5011570;28;20054;-68
2022/09/23 00:54:09;;;;;;;5.78;3.40;;;;;;;9.43;100.00;100272.81;5011892;28;20026;-68
2022/09/23 00:56:37;;;;;;;8.82;4.18;;;;;;;9.41;100.00;100274.63;5015295;28;20147;-68
2022/09/23 00:59:05;;;;;;;7.65;4.10;;;;;;;9.44;100.00;100287.84;5031878;28;20420;-68
2022/09/23 01:01:30;;;;;;;6.20;3.53;;;;;;;9.45;100.00;100288.72;5031681;28;20018;-68
2022/09/23 01:03:57;;;;;;;5.78;3.58;;;;;;;9.39;100.00;100284.41;5031586;28;20025;-68
2022/09/23 01:06:23;;;;;;;4.85;3.35;;;;;;;9.35;100.00;100280.09;5031752;28;20025;-67
2022/09/23 01:08:49;;;;;;;5.63;3.53;;;;;;;9.39;100.00;100292.38;5031351;28;20112;-67
2022/09/23 01:11:36;;;;;;;5.97;3.47;;;;;;;9.35;100.00;100285.41;5031295;28;20472;-67
2022/09/23 01:14:09;;;;;;;6.45;3.60;;;;;;;9.24;100.00;100271.53;5031432;28;20029;-68
2022/09/23 01:17:01;;;;;;;9.18;3.63;;;;;;;9.26;100.00;100285.59;5013652;28;20168;-67
2022/09/23 01:19:35;;;;;;;8.05;3.63;;;;;;;9.23;100.00;100283.03;5031134;28;20044;-68
2022/09/23 01:22:56;;;;;;;5.43;3.50;;;;;;;9.19;100.00;100284.88;5031194;28;20031;-68
2022/09/23 01:26:02;;;;;;;7.15;4.20;;;;;;;9.16;100.00;100277.00;4931448;29;20118;-68
2022/09/23 01:28:59;;;;;;;5.78;3.75;;;;;;;9.16;100.00;100276.09;4931042;29;20427;-67
2022/09/23 01:31:40;;;;;;;6.70;3.70;;;;;;;9.12;100.00;100277.09;5030836;28;20025;-67
2022/09/23 01:34:15;;;;;;;5.78;3.78;;;;;;;9.11;100.00;100278.88;5030857;28;20029;-66
2022/09/23 01:36:50;;;;;;;5.93;4.00;;;;;;;9.10;100.00;100277.13;5031072;28;20152;-67
2022/09/23 01:39:24;;;;;;;9.18;4.82;;;;;;;9.05;100.00;100283.44;5030842;28;20035;-67
2022/09/23 01:42:01;;;;;;;7.75;4.03;;;;;;;9.03;100.00;100274.63;5031082;28;20025;-68
2022/09/23 01:44:46;;;;;;;5.13;3.78;;;;;;;8.99;100.00;100275.63;5032980;28;20033;-68
2022/09/23 01:47:40;;;;;;;6.80;4.13;;;;;;;9.04;100.00;100279.06;5030838;28;20040;-69
2022/09/23 01:53:04;;;;;;;7.03;3.78;;;;;;;8.90;100.00;100262.56;5030557;28;20917;-68
2022/09/23 01:55:34;;;;;;;5.88;4.05;;;;;;;8.95;100.00;100276.59;5027537;28;20025;-68
2022/09/23 01:58:03;;;;;;;11.60;4.35;;;;;;;8.95;100.00;100282.78;5014278;28;20046;-68
2022/09/23 02:00:33;;;;;;;6.50;4.13;;;;;;;8.92;100.00;100279.31;5009988;28;20485;-68
2022/09/23 02:03:14;;;;;;;6.00;4.22;;;;;;;8.84;100.00;100266.22;5009860;28;20054;-68
2022/09/23 02:05:49;;;;;;;6.07;3.78;;;;;;;8.88;100.00;100277.66;5009904;28;20018;-68
2022/09/23 02:08:30;;;;;;;9.00;4.50;;;;;;;8.79;100.00;100259.28;5009922;28;20026;-69
2022/09/23 02:11:17;;;;;;;6.15;3.85;;;;;;;8.86;100.00;100271.50;5010433;28;20029;-68
2022/09/23 02:13:59;;;;;;;7.15;3.60;;;;;;;8.80;100.00;100258.34;5010090;28;20037;-67
2022/09/23 02:16:24;;;;;;;6.30;3.85;;;;;;;8.82;100.00;100268.03;5010479;28;20428;-68
2022/09/23 02:19:34;;;;;;;6.53;3.83;;;;;;;8.78;100.00;100271.66;5010347;28;20105;-68
2022/09/23 02:22:07;;;;;;;8.35;4.57;;;;;;;8.78;100.00;100260.19;4949309;29;20113;-67
2022/09/23 02:24:37;;;;;;;6.03;3.80;;;;;;;8.75;100.00;100265.53;4950767;28;20039;-68
2022/09/23 02:27:30;;;;;;;7.05;4.38;;;;;;;8.75;100.00;100269.06;4999119;28;20052;-68
2022/09/23 02:30:20;;;;;;;7.38;4.38;;;;;;;8.68;100.00;100261.28;5029493;28;20056;-68
2022/09/23 02:33:03;;;;;;;8.48;4.03;;;;;;;8.65;100.00;100259.56;5029153;28;20493;-68
2022/09/23 02:35:41;;;;;;;8.55;4.35;;;;;;;8.65;100.00;100264.00;5029240;28;20540;-69
2022/09/23 02:38:40;;;;;;;7.88;4.63;;;;;;;8.65;100.00;100253.41;5011744;28;20161;-69
2022/09/23 02:41:26;;;;;;;8.10;4.50;;;;;;;8.61;100.00;100262.31;5008397;28;20041;-69
2022/09/23 02:44:03;;;;;;;5.85;3.70;;;;;;;8.60;100.00;100261.44;5029537;28;20384;-68
2022/09/23 02:46:29;;;;;;;8.20;4.55;;;;;;;8.58;100.00;100251.78;5029786;28;20053;-68
2022/09/23 02:49:16;;;;;;;8.15;4.22;;;;;;;8.59;100.00;100253.50;5029739;28;20098;-69
2022/09/23 02:51:42;;;;;;;6.28;4.47;;;;;;;8.43;100.00;100225.59;5029725;28;20046;-68
2022/09/23 02:54:13;;;;;;;7.05;4.50;;;;;;;8.55;100.00;100238.59;5029741;28;20088;-69
2022/09/23 02:56:40;;;;;;;6.25;4.07;;;;;;;8.51;100.00;100228.94;5025292;28;20025;-69
2022/09/23 02:59:07;;;;;;;7.50;4.25;;;;;;;8.55;100.00;100239.44;5009893;28;20482;-69
2022/09/23 03:01:44;;;;;;;6.65;4.32;;;;;;;8.54;100.00;100234.16;5009818;28;20037;-68
2022/09/23 03:04:41;;;;;;;6.90;4.22;;;;;;;8.54;100.00;100239.47;5009736;28;20422;-69
2022/09/23 03:07:31;;;;;;;7.03;4.75;;;;;;;8.52;100.00;100236.84;5009845;28;20094;-69
2022/09/23 03:09:59;;;;;;;7.10;4.03;;;;;;;8.26;100.00;100201.19;5009605;28;20083;-68
2022/09/23 03:12:34;;;;;;;6.63;4.13;;;;;;;8.51;100.00;100242.19;5009797;28;20508;-69
2022/09/23 03:15:26;;;;;;;7.88;4.30;;;;;;;8.48;100.00;100244.91;5009692;28;20033;-69
2022/09/23 03:18:00;;;;;;;8.52;5.18;;;;;;;8.49;100.00;100247.53;5009774;28;20026;-69
2022/09/23 03:20:37;;;;;;;6.15;4.13;;;;;;;8.48;100.00;100247.56;5009481;28;20025;-68
2022/09/23 03:23:08;;;;;;;8.63;4.28;;;;;;;8.46;100.00;100252.91;5009728;28;20037;-69
2022/09/23 03:25:37;;;;;;;7.32;4.72;;;;;;;8.46;100.00;100241.41;5009614;28;20034;-68
2022/09/23 03:28:06;;;;;;;7.55;4.43;;;;;;;8.48;100.00;100243.16;4990809;28;20030;-68
2022/09/23 03:30:34;;;;;;;10.48;5.47;;;;;;;8.46;100.00;100238.75;5008645;28;20033;-70
2022/09/23 03:33:03;;;;;;;8.30;5.03;;;;;;;8.43;100.00;100241.47;5008404;28;20054;-68
2022/09/23 03:35:31;;;;;;;8.65;4.80;;;;;;;8.42;100.00;100243.25;5008727;28;20461;-69
2022/09/23 03:38:08;;;;;;;9.27;5.32;;;;;;;8.39;100.00;100237.13;5008497;28;20429;-69
2022/09/23 03:40:40;;;;;;;9.18;5.45;;;;;;;8.39;100.00;100245.09;5008517;28;20453;-70
2022/09/23 03:43:06;;;;;;;7.90;4.70;;;;;;;8.28;100.00;100228.53;5009537;28;20429;-69
2022/09/23 03:45:33;;;;;;;8.52;5.45;;;;;;;8.33;100.00;100239.91;5009295;28;20783;-69
2022/09/23 03:47:59;;;;;;;11.23;5.78;;;;;;;8.31;100.00;100236.41;5009364;28;20036;-68
2022/09/23 03:50:24;;;;;;;9.40;5.82;;;;;;;8.24;100.00;100225.06;5009165;28;20050;-68
2022/09/23 03:52:51;;;;;;;9.25;5.47;;;;;;;8.26;100.00;100233.00;5016075;28;20072;-69
2022/09/23 03:55:18;;;;;;;8.30;5.28;;;;;;;8.22;100.00;100234.78;5030114;28;20034;-69
2022/09/23 03:57:44;;;;;;;12.30;5.60;;;;;;;8.20;100.00;100226.03;5019633;28;20041;-69
2022/09/23 04:00:10;;;;;;;8.73;5.05;;;;;;;8.19;100.00;100229.56;5012971;28;20057;-70
2022/09/23 04:02:36;;;;;;;8.73;5.53;;;;;;;8.20;100.00;100227.78;5012977;28;20026;-68
2022/09/23 04:05:02;;;;;;;8.88;5.10;;;;;;;8.17;100.00;100234.00;5012858;28;20034;-68
2022/09/23 04:07:27;;;;;;;10.85;5.40;;;;;;;8.16;100.00;100236.69;5012983;28;20113;-68
2022/09/23 04:09:53;;;;;;;10.35;6.63;;;;;;;8.15;100.00;100238.47;5012900;28;20030;-69
2022/09/23 04:12:18;;;;;;;8.32;5.05;;;;;;;8.19;100.00;100241.94;5012436;28;20030;-68
2022/09/23 04:14:44;;;;;;;8.82;5.53;;;;;;;8.12;100.00;100224.41;5012146;28;20026;-69
2022/09/23 04:17:10;;;;;;;10.45;5.22;;;;;;;8.16;100.00;100240.22;5012115;28;20030;-68
2022/09/23 04:19:36;;;;;;;8.48;4.50;;;;;;;8.13;100.00;100242.03;5010627;28;20061;-68
2022/09/23 04:22:02;;;;;;;13.75;6.90;;;;;;;8.12;100.00;100241.19;5012094;28;20096;-70
2022/09/23 04:24:28;;;;;;;8.40;5.32;;;;;;;8.15;100.00;100237.59;5033773;28;20036;-69
2022/09/23 04:26:55;;;;;;;8.98;5.28;;;;;;;8.04;100.00;100225.44;5031821;28;20037;-69
2022/09/23 04:29:22;;;;;;;11.00;5.53;;;;;;;8.10;100.00;100235.03;5034806;28;20040;-70
2022/09/23 04:31:48;;;;;;;12.07;5.70;;;;;;;8.15;100.00;100240.25;5032404;28;20125;-69
2022/09/23 04:34:16;;;;;;;10.70;6.63;;;;;;;8.18;100.00;100241.06;5032286;28;20120;-70
2022/09/23 04:36:43;;;;;;;12.93;6.40;;;;;;;8.19;100.00;100245.44;5032543;28;20036;-71
2022/09/23 04:39:09;;;;;;;9.90;5.60;;;;;;;8.25;100.00;100241.84;5012335;28;20033;-69
2022/09/23 04:41:35;;;;;;;11.00;5.55;;;;;;;8.36;100.00;100245.16;5015112;28;20022;-68
2022/09/23 04:44:00;;;;;;;8.88;6.20;;;;;;;8.51;100.00;100250.16;5014428;28;20033;-69
2022/09/23 04:46:26;;;;;;;9.13;5.85;;;;;;;8.67;100.00;100235.66;5012062;28;20033;-69
2022/09/23 04:48:51;;;;;;;10.45;6.00;;;;;;;8.77;100.00;100245.16;4994110;28;20021;-69
2022/09/23 04:51:20;;;;;;;8.38;5.97;;;;;;;8.86;100.00;100242.31;5011781;28;20217;-69
2022/09/23 04:53:48;;;;;;;9.68;5.57;;;;;;;8.89;100.00;100237.84;5012245;28;20061;-67
2022/09/23 04:56:22;;;;;;;11.40;5.88;;;;;;;8.96;100.00;100249.19;5012014;28;20060;-68
2022/09/23 04:58:48;;;;;;;10.90;6.55;;;;;;;9.02;100.00;100235.75;5031097;28;20685;-68
2022/09/23 05:01:25;;;;;;;14.65;6.20;;;;;;;9.08;100.00;100244.44;5031091;28;20087;-68
2022/09/23 05:04:12;;;;;;;10.75;6.25;;;;;;;9.12;100.00;100239.94;5030839;28;20092;-68
2022/09/23 05:06:37;;;;;;;10.52;6.15;;;;;;;9.18;100.00;100245.09;5029861;28;20511;-67
2022/09/23 05:09:06;;;;;;;9.05;5.13;;;;;;;9.19;100.00;100238.91;5011285;28;20109;-68
2022/09/23 05:11:31;;;;;;;10.48;5.65;;;;;;;9.16;100.00;100239.84;5010704;28;20037;-68
2022/09/23 05:13:57;;;;;;;10.18;6.20;;;;;;;9.18;100.00;100234.50;5011087;28;20022;-68
2022/09/23 05:16:23;;;;;;;9.80;5.32;;;;;;;9.29;100.00;100251.06;5010964;28;20021;-67
2022/09/23 05:18:50;;;;;;;8.85;5.85;;;;;;;9.22;100.00;100250.28;5010989;28;20029;-67
2022/09/23 05:21:17;;;;;;;10.02;5.95;;;;;;;9.26;100.00;100251.09;5010672;28;20048;-68
2022/09/23 05:23:55;;;;;;;17.65;6.47;;;;;;;9.24;100.00;100244.97;5011508;28;20084;-67
2022/09/23 05:26:26;;;;;;;13.80;6.63;;;;;;;9.23;100.00;100244.09;5011625;28;20112;-69
2022/09/23 05:28:53;;;;;;;16.65;5.70;;;;;;;9.26;100.00;100245.78;5011523;28;20161;-68
2022/09/23 05:31:20;;;;;;;14.38;6.57;;;;;;;9.29;100.00;100248.41;5011297;28;20029;-68
2022/09/23 05:33:50;;;;;;;8.70;4.97;;;;;;;9.31;100.00;100241.25;5011568;28;20379;-69
2022/09/23 05:36:17;;;;;;;11.52;5.97;;;;;;;9.31;100.00;100251.88;5011533;28;20028;-68
2022/09/23 05:38:43;;;;;;;10.02;6.30;;;;;;;9.36;100.00;100249.13;5011426;28;20022;-70
2022/09/23 05:41:12;;;;;;;12.63;7.15;;;;;;;9.39;100.00;100254.34;5011361;28;20125;-70
2022/09/23 05:43:38;;;;;;;12.52;6.35;;;;;;;9.45;100.00;100248.88;5011167;28;20149;-69
2022/09/23 05:46:15;;;;;;;11.52;6.50;;;;;;;9.53;100.00;100253.09;5010829;28;20026;-69
2022/09/23 05:48:41;;;;;;;11.57;7.05;;;;;;;9.58;100.00;100245.91;5029244;28;20788;-68
2022/09/23 05:51:11;;;;;;;9.73;6.43;;;;;;;9.65;100.00;100250.16;5029700;28;20048;-67
2022/09/23 05:53:38;;;;;;;14.20;7.30;;;;;;;9.76;100.00;100249.88;5030063;28;20060;-68
2022/09/23 05:56:04;;;;;;;11.18;6.57;;;;;;;9.83;100.00;100252.34;5029576;28;20550;-67
2022/09/23 05:58:29;;;;;;;12.73;7.47;;;;;;;9.88;100.00;100258.41;5010530;28;20494;-67
2022/09/23 06:00:55;;;;;;;12.00;6.05;;;;;;;9.93;100.00;100243.22;5022594;28;20037;-67
2022/09/23 06:03:22;;;;;;;10.85;7.30;;;;;;;9.99;100.00;100247.47;5030562;28;20033;-68
2022/09/23 06:05:51;;;;;;;11.40;7.00;;;;;;;10.11;100.00;100248.09;5030561;28;20037;-67
2022/09/23 06:08:17;;;;;;;12.43;7.20;;;;;;;10.16;100.00;100245.28;5018000;28;20026;-67
2022/09/23 06:10:45;;;;;;;10.95;7.07;;;;;;;10.31;100.00;100251.03;5010791;28;20029;-66
2022/09/23 06:13:10;;;;;;;12.95;7.28;;;;;;;10.56;100.00;100245.91;5010478;28;20032;-67
2022/09/23 06:15:36;;;;;;;14.63;8.45;;;;;;;10.90;100.00;100243.13;5011943;28;20733;-67
2022/09/23 06:18:02;;;;;;;13.70;8.18;;;;;;;11.44;100.00;100238.72;5030414;28;20033;-66
2022/09/23 06:20:28;;;;;;;14.15;7.82;;;;;;;12.06;100.00;100240.16;5030322;28;20033;-67
2022/09/23 06:22:55;;;;;;;16.95;9.77;;;;;;;12.52;97.35;100240.25;5012593;28;20546;-67
2022/09/23 06:25:21;;;;;;;15.38;8.57;;;;;;;12.87;94.61;100249.63;5032845;28;20044;-69
2022/09/23 06:27:53;;;;;;;14.52;7.32;;;;;;;13.01;90.13;100240.19;5029970;28;20389;-68
2022/09/23 06:30:20;;;;;;;11.20;7.15;;;;;;;13.29;88.87;100239.09;5030140;28;20034;-68
2022/09/23 06:32:52;;;;;;;15.60;7.35;;;;;;;13.46;86.77;100236.63;5030045;28;20471;-68
2022/09/23 06:35:24;;;;;;;11.45;6.82;;;;;;;13.45;84.98;100234.88;5029780;28;20084;-69
2022/09/23 06:37:49;;;;;;;13.73;6.95;;;;;;;13.48;84.72;100235.63;5021153;28;20025;-69
2022/09/23 06:40:15;;;;;;;9.48;5.78;;;;;;;13.41;84.32;100242.13;5010199;28;20032;-68
2022/09/23 06:42:41;;;;;;;9.95;5.82;;;;;;;13.39;84.41;100224.44;5010237;28;20056;-69
2022/09/23 06:45:11;;;;;;;8.65;5.47;;;;;;;13.61;84.56;100242.19;5012062;28;20048;-68
2022/09/23 06:47:38;;;;;;;8.57;5.65;;;;;;;13.84;84.09;100235.88;5012707;28;20455;-69
2022/09/23 06:50:04;;;;;;;8.88;5.72;;;;;;;13.94;83.30;100231.88;5009831;28;20462;-68
2022/09/23 06:52:30;;;;;;;8.80;5.18;;;;;;;14.21;82.20;100246.75;5010092;28;20026;-69
2022/09/23 06:54:55;;;;;;;15.10;7.05;;;;;;;14.38;82.40;100241.59;5009773;28;20072;-68
2022/09/23 06:57:21;;;;;;;9.07;5.25;;;;;;;14.69;81.91;100239.25;5019764;28;20049;-68
2022/09/23 06:59:46;;;;;;;8.23;5.32;;;;;;;15.10;79.90;100234.66;5030047;28;20028;-68
2022/09/23 07:02:12;;;;;;;7.72;4.97;;;;;;;15.55;78.19;100246.72;5029815;28;20397;-68
2022/09/23 07:04:37;;;;;;;7.03;4.53;;;;;;;15.91;75.79;100245.84;5029974;28;20029;-69
2022/09/23 07:07:03;;;;;;;8.18;5.15;;;;;;;16.30;74.56;100246.47;5026869;28;20481;-68
2022/09/23 07:09:28;;;;;;;9.75;5.13;;;;;;;16.55;73.44;100242.47;5009724;28;20034;-69
2022/09/23 07:11:53;;;;;;;9.60;5.93;;;;;;;16.68;71.45;100245.34;5009855;28;20026;-69
2022/09/23 07:14:19;;;;;;;11.18;5.60;;;;;;;16.85;71.55;100256.91;5010043;28;20113;-68
2022/09/23 07:16:48;;;;;;;7.75;5.30;;;;;;;17.11;70.75;100263.56;5010036;28;20029;-68
2022/09/23 07:19:13;;;;;;;9.93;5.43;;;;;;;17.23;70.09;100252.13;5009793;28;20149;-68
2022/09/23 07:21:38;;;;;;;9.38;5.35;;;;;;;17.38;69.07;100248.56;5009665;28;20120;-68
2022/09/23 07:24:04;;;;;;;8.13;5.18;;;;;;;17.56;68.31;100258.31;5009617;28;20748;-68
2022/09/23 07:26:32;;;;;;;7.95;5.30;;;;;;;17.84;67.32;100261.13;5009634;28;20072;-68
2022/09/23 07:29:03;;;;;;;11.48;5.38;;;;;;;18.14;66.28;100259.34;5011897;28;20101;-68
2022/09/23 07:31:30;;;;;;;9.43;5.18;;;;;;;18.57;64.86;100252.25;5013349;28;20038;-68
2022/09/23 07:33:57;;;;;;;10.57;4.72;;;;;;;18.73;62.62;100266.50;5013820;28;20127;-68
2022/09/23 07:36:23;;;;;;;9.02;4.90;;;;;;;18.93;61.25;100271.53;5013513;28;20033;-67
2022/09/23 07:38:49;;;;;;;7.82;5.07;;;;;;;19.13;60.86;100268.47;5027359;28;20025;-68
2022/09/23 07:41:17;;;;;;;8.75;5.13;;;;;;;19.28;59.91;100266.59;5032903;28;20119;-68
2022/09/23 07:43:43;;;;;;;8.75;4.57;;;;;;;19.26;58.86;100280.19;5033048;28;20021;-68
2022/09/23 07:46:15;;;;;;;7.05;4.57;;;;;;;19.13;58.43;100275.66;5033116;28;20041;-68
2022/09/23 07:48:41;;;;;;;6.47;4.10;;;;;;;19.06;59.22;100271.66;5033234;28;20104;-68
2022/09/23 07:51:12;;;;;;;6.75;4.43;;;;;;;19.11;60.62;100269.53;5032870;28;20490;-69
2022/09/23 07:53:38;;;;;;;7.90;4.70;;;;;;;19.48;60.12;100267.09;5032918;28;20423;-69
2022/09/23 07:56:06;;;;;;;8.38;3.90;;;;;;;19.72;58.54;100280.81;5033094;28;20031;-69
2022/09/23 07:58:33;;;;;;;6.60;3.80;;;;;;;19.97;57.11;100286.31;5013191;28;20033;-69
2022/09/23 08:01:05;;;;;;;5.43;3.53;;;;;;;20.16;56.40;100280.59;5013112;28;20026;-69
2022/09/23 08:03:31;;;;;;;5.90;3.67;;;;;;;20.59;54.97;100284.78;5012932;28;20507;-69
2022/09/23 08:06:12;;;;;;;5.90;3.38;;;;;;;21.06;53.64;100282.34;5012964;28;20026;-69
2022/09/23 08:08:39;;;;;;;8.90;4.28;;;;;;;21.09;51.79;100281.28;5015557;28;20079;-70
2022/09/23 08:11:08;;;;;;;6.47;4.15;;;;;;;21.48;50.58;100278.38;5013268;28;20077;-71
2022/09/23 08:13:34;;;;;;;7.07;4.25;;;;;;;21.67;49.12;100278.75;5012615;28;20124;-70
2022/09/23 08:15:59;;;;;;;7.07;4.20;;;;;;;21.51;49.83;100283.56;5012807;28;20030;-70
2022/09/23 08:18:25;;;;;;;7.18;4.70;;;;;;;21.57;49.92;100272.28;5012609;28;20018;-70
2022/09/23 08:20:51;;;;;;;9.05;4.30;;;;;;;21.62;49.48;100281.81;5025475;28;20025;-70
2022/09/23 08:23:17;;;;;;;7.10;4.20;;;;;;;21.85;50.39;100289.13;5032190;28;20029;-70
2022/09/23 08:25:45;;;;;;;6.72;4.55;;;;;;;21.89;49.73;100284.34;5032073;28;20067;-71
2022/09/23 08:28:13;;;;;;;8.10;3.85;;;;;;;22.11;49.47;100276.31;5031344;28;20100;-70
2022/09/23 08:30:38;;;;;;;6.63;4.10;;;;;;;22.40;48.77;100277.69;5033856;28;20029;-70
2022/09/23 08:33:04;;;;;;;10.70;5.03;;;;;;;22.19;50.33;100284.72;5030974;28;20582;-71
2022/09/23 08:35:29;;;;;;;6.28;4.32;;;;;;;22.47;48.55;100276.22;5031341;28;20030;-70
2022/09/23 08:37:55;;;;;;;7.47;3.92;;;;;;;22.55;49.31;100271.13;5021570;28;20026;-69
2022/09/23 08:40:20;;;;;;;10.48;4.47;;;;;;;22.74;48.53;100268.69;5010778;28;20033;-71
2022/09/23 08:42:47;;;;;;;6.45;4.07;;;;;;;22.80;47.36;100270.91;5012468;28;20037;-71
2022/09/23 08:45:20;;;;;;;5.35;3.88;;;;;;;22.44;46.75;100273.75;5012180;28;20040;-71
2022/09/23 08:47:57;;;;;;;6.80;4.05;;;;;;;22.47;47.86;100267.25;5012568;28;20124;-71
2022/09/23 08:50:27;;;;;;;6.28;4.15;;;;;;;22.70;47.72;100269.06;5015249;28;20048;-70
2022/09/23 08:52:59;;;;;;;7.85;4.68;;;;;;;22.82;47.08;100266.22;5029814;28;20033;-71
2022/09/23 08:55:39;;;;;;;7.45;4.20;;;;;;;23.08;47.53;100265.03;5031972;28;20133;-71
2022/09/23 08:58:25;;;;;;;6.38;3.60;;;;;;;23.20;45.74;100255.91;5015599;28;20156;-71
2022/09/23 09:01:06;;;;;;;7.68;3.85;;;;;;;23.12;46.47;100261.09;5011936;28;20048;-71
2022/09/23 09:03:39;;;;;;;6.35;3.42;;;;;;;23.44;46.80;100264.81;5012039;28;20026;-71
2022/09/23 09:06:11;;;;;;;5.82;3.25;;;;;;;23.38;46.34;100262.59;5012050;28;20517;-71
2022/09/23 09:08:37;;;;;;;6.95;3.72;;;;;;;23.35;46.28;100265.56;5011584;28;20037;-70
2022/09/23 09:11:05;;;;;;;8.32;3.45;;;;;;;23.61;46.14;100262.59;5011921;28;20448;-71
2022/09/23 09:13:43;;;;;;;5.95;3.30;;;;;;;23.11;46.55;100262.06;5011296;28;20379;-71
2022/09/23 09:16:41;;;;;;;6.03;3.17;;;;;;;22.98;46.04;100266.75;5010696;28;20022;-71
2022/09/23 09:19:14;;;;;;;5.32;3.33;;;;;;;22.90;46.15;100258.34;5010485;28;20036;-71
2022/09/23 09:21:42;;;;;;;6.45;3.10;;;;;;;23.38;45.80;100242.72;5010873;28;20029;-71
2022/09/23 09:24:35;;;;;;;6.35;2.60;;;;;;;23.83;44.52;100235.34;5010528;28;20040;-71
2022/09/23 09:27:10;;;;;;;7.15;2.53;;;;;;;24.42;42.71;100250.19;5010064;28;20060;-71
2022/09/23 09:29:40;;;;;;;4.72;2.80;;;;;;;24.60;43.51;100241.31;5010930;28;20049;-71
2022/09/23 09:32:23;;;;;;;8.80;3.55;;;;;;;24.66;42.39;100243.50;5011381;28;20033;-70
2022/09/23 09:34:58;;;;;;;4.07;2.63;;;;;;;24.99;42.67;100239.72;5019795;28;20032;-72
2022/09/23 09:37:36;;;;;;;5.63;2.40;;;;;;;25.32;41.17;100233.16;5025118;28;20280;-68
2022/09/23 09:40:02;;;;;;;6.03;3.22;;;;;;;25.22;41.46;100227.63;5011594;28;20105;-71
2022/09/23 09:42:43;;;;;;;4.57;2.60;;;;;;;25.08;42.17;100218.97;5010601;28;20030;-71
2022/09/23 09:45:09;;;;;;;5.60;2.88;;;;;;;25.25;42.72;100232.84;5010283;28;20030;-71
2022/09/23 09:47:59;;;;;;;4.88;2.65;;;;;;;25.51;41.64;100223.19;5010325;28;20038;-71
2022/09/23 09:50:47;;;;;;;5.47;2.88;;;;;;;25.66;40.97;100221.81;5009994;28;20054;-71
2022/09/23 09:53:34;;;;;;;5.30;2.45;;;;;;;25.75;40.60;100211.91;5009962;28;20037;-71
2022/09/23 09:56:02;;;;;;;5.57;2.80;;;;;;;25.84;42.12;100209.22;5010137;28;20098;-71
2022/09/23 09:58:33;;;;;;;5.32;2.50;;;;;;;25.92;41.62;100206.63;5010795;28;20051;-71
2022/09/23 10:00:59;;;;;;;5.10;2.67;;;;;;;25.76;41.49;100203.63;5011035;28;20125;-72
2022/09/23 10:03:32;;;;;;;4.82;2.28;;;;;;;25.98;39.47;100206.06;5010076;28;20636;-70
2022/09/23 10:05:57;;;;;;;5.35;3.00;;;;;;;26.10;39.99;100208.66;5009770;28;20067;-71
2022/09/23 10:08:28;;;;;;;5.05;2.72;;;;;;;26.20;40.91;100204.06;5009747;28;20037;-71
2022/09/23 10:11:12;;;;;;;4.50;3.03;;;;;;;26.25;39.49;100207.22;5026006;28;20470;-72
2022/09/23 10:13:37;;;;;;;6.25;2.97;;;;;;;26.23;39.88;100201.09;5029459;28;20044;-72
2022/09/23 10:16:03;;;;;;;4.75;2.80;;;;;;;26.00;40.21;100189.56;5029236;28;20511;-72
2022/09/23 10:18:33;;;;;;;5.60;2.60;;;;;;;26.12;41.56;100187.56;5029564;28;20033;-72
2022/09/23 10:21:01;;;;;;;5.32;2.75;;;;;;;26.42;40.84;100185.56;5032170;28;20743;-72
2022/09/23 10:23:32;;;;;;;5.13;2.97;;;;;;;26.72;39.38;100179.06;5031864;28;20033;-72
2022/09/23 10:26:01;;;;;;;6.57;2.63;;;;;;;26.77;39.47;100155.75;5029593;28;20044;-72
2022/09/23 10:28:40;;;;;;;8.63;3.38;;;;;;;27.18;38.24;100171.66;5029254;28;20060;-72
2022/09/23 10:31:23;;;;;;;4.18;2.28;;;;;;;27.17;38.80;100174.53;5029418;28;20033;-71
2022/09/23 10:33:56;;;;;;;5.43;2.58;;;;;;;27.38;39.22;100166.97;5029848;28;20067;-72
2022/09/23 10:36:24;;;;;;;5.28;2.42;;;;;;;27.23;37.84;100168.50;5029567;28;20432;-71
2022/09/23 10:48:24;;;;;;;7.13;3.10;;;;;;;27.53;37.94;100162.72;5008662;28;20036;-71
2022/09/23 10:50:54;;;;;;;6.20;2.70;;;;;;;27.83;38.71;100159.63;5009006;28;20068;-73
2022/09/23 10:53:52;;;;;;;9.00;2.38;;;;;;;28.02;37.57;100162.22;5011686;28;20022;-72
2022/09/23 10:56:33;;;;;;;5.00;2.40;;;;;;;28.28;36.82;100163.16;4966839;28;20049;-72
2022/09/23 10:59:30;;;;;;;5.03;3.15;;;;;;;28.32;36.77;100164.53;5029608;28;20513;-73
2022/09/23 11:02:20;;;;;;;6.25;2.50;;;;;;;28.44;36.81;100162.41;5029755;28;20109;-72
2022/09/23 11:05:10;;;;;;;9.18;2.58;;;;;;;28.30;37.52;100160.25;5028375;28;20084;-72
2022/09/23 11:07:43;;;;;;;4.70;2.50;;;;;;;28.48;37.29;100164.66;5021672;28;20029;-72
2022/09/23 11:10:29;;;;;;;5.80;3.03;;;;;;;28.57;36.70;100159.31;5008960;28;20034;-71
2022/09/23 11:13:09;;;;;;;4.68;2.45;;;;;;;27.92;37.51;100152.41;5008831;28;20065;-72
2022/09/23 11:16:01;;;;;;;6.00;2.58;;;;;;;27.15;39.65;100150.13;5008877;28;20550;-70
2022/09/23 11:18:44;;;;;;;6.07;2.47;;;;;;;26.97;39.59;100151.94;5009158;28;20030;-71
2022/09/23 11:21:22;;;;;;;5.82;2.50;;;;;;;26.79;39.68;100147.41;5009771;28;20026;-71
2022/09/23 11:24:02;;;;;;;5.45;2.45;;;;;;;26.66;39.77;100142.28;5009408;28;20331;-71
2022/09/23 11:26:33;;;;;;;4.70;3.00;;;;;;;26.75;38.92;100137.81;5009750;28;20036;-72
2022/09/23 11:29:05;;;;;;;5.28;3.08;;;;;;;27.20;39.05;100131.41;5009603;28;20041;-71
2022/09/23 11:31:46;;;;;;;6.95;2.83;;;;;;;27.41;37.94;100133.91;5009685;28;20100;-71
2022/09/23 11:34:21;;;;;;;6.80;2.42;;;;;;;27.74;36.68;100130.47;5009370;28;20026;-72
2022/09/23 11:36:55;;;;;;;4.03;2.50;;;;;;;27.86;36.31;100131.97;5009454;28;20033;-72
2022/09/23 11:39:56;;;;;;;5.10;2.95;;;;;;;27.87;37.35;100128.25;5009607;28;20026;-72
2022/09/23 11:42:27;;;;;;;3.83;2.45;;;;;;;27.63;36.64;100121.69;5019902;28;20021;-72
2022/09/23 11:45:20;;;;;;;6.03;2.45;;;;;;;26.93;38.90;100116.91;5028102;28;20141;-71
2022/09/23 11:48:22;;;;;;;3.60;2.20;;;;;;;26.52;38.75;100109.13;5012541;28;20029;-72
2022/09/23 11:50:56;;;;;;;8.07;2.50;;;;;;;26.19;39.35;100109.63;5014943;28;20124;-72
2022/09/23 11:53:42;;;;;;;4.25;2.03;;;;;;;25.78;40.89;100103.47;5028397;28;20076;-71
2022/09/23 11:56:25;;;;;;;11.27;2.35;;;;;;;25.62;40.60;100099.59;5028641;28;20045;-71
2022/09/23 11:59:01;;;;;;;3.97;2.00;;;;;;;26.20;39.57;100095.84;5009462;28;20022;-71